createdAt,value
2019-04-30T00:00:42.430Z,9.93
2019-04-30T00:03:18.011Z,10.27
2019-04-30T00:05:44.992Z,11.40
2019-04-30T00:08:13.322Z,11.50
2019-04-30T00:10:41.809Z,8.37
2019-04-30T00:13:14.863Z,9.13
2019-04-30T00:15:40.651Z,10.17
2019-04-30T00:18:09.199Z,10.73
2019-04-30T00:20:38.768Z,7.53
2019-04-30T00:23:07.737Z,9.90
2019-04-30T00:25:36.486Z,9.83
2019-04-30T00:28:08.629Z,9.00
2019-04-30T00:30:39.366Z,9.67
2019-04-30T00:33:06.266Z,10.43
2019-04-30T00:35:35.610Z,10.57
2019-04-30T00:38:05.030Z,8.30
2019-04-30T00:40:35.179Z,9.50
2019-04-30T00:43:07.544Z,10.37
2019-04-30T00:45:35.385Z,9.53
2019-04-30T00:48:05.871Z,8.03
2019-04-30T00:50:37.245Z,6.03
2019-04-30T00:53:05.876Z,8.43
2019-04-30T00:55:40.291Z,7.50
2019-04-30T00:58:05.953Z,8.03
2019-04-30T01:00:37.178Z,8.23
2019-04-30T01:03:13.252Z,7.20
2019-04-30T01:05:46.503Z,9.27
2019-04-30T01:08:12.073Z,6.10
2019-04-30T01:10:40.710Z,7.47
2019-04-30T01:13:11.966Z,7.87
2019-04-30T01:15:39.508Z,7.90
2019-04-30T01:18:09.327Z,6.27
2019-04-30T01:20:38.669Z,7.97
2019-04-30T01:23:11.309Z,8.07
2019-04-30T01:25:38.894Z,7.83
2019-04-30T01:28:08.402Z,5.60
2019-04-30T01:30:39.374Z,6.10
2019-04-30T01:33:09.157Z,6.07
2019-04-30T01:35:38.210Z,9.23
2019-04-30T01:38:11.232Z,12.97
2019-04-30T01:40:42.750Z,11.37
2019-04-30T01:43:11.878Z,12.20
2019-04-30T01:45:40.350Z,13.33
2019-04-30T01:48:12.105Z,9.87
2019-04-30T01:50:42.020Z,9.17
2019-04-30T01:53:13.093Z,8.67
2019-04-30T01:55:41.581Z,7.70
2019-04-30T01:58:11.721Z,6.80
2019-04-30T02:00:41.919Z,7.83
2019-04-30T02:03:11.221Z,8.13
2019-04-30T02:05:39.857Z,7.00
2019-04-30T02:08:08.537Z,7.80
2019-04-30T02:10:36.978Z,9.53
2019-04-30T02:13:05.681Z,9.47
2019-04-30T02:15:34.130Z,9.97
2019-04-30T02:18:02.698Z,9.10
2019-04-30T02:20:31.209Z,6.90
2019-04-30T02:22:59.738Z,9.73
2019-04-30T02:25:29.557Z,7.73
2019-04-30T02:27:59.180Z,5.87
2019-04-30T02:30:30.527Z,14.03
2019-04-30T02:33:00.543Z,8.57
2019-04-30T02:35:35.921Z,8.63
2019-04-30T02:38:21.339Z,6.63
2019-04-30T02:40:50.830Z,8.60
2019-04-30T02:43:20.722Z,6.83
2019-04-30T02:45:51.842Z,7.83
2019-04-30T02:48:23.110Z,7.30
2019-04-30T02:50:53.602Z,6.47
2019-04-30T02:53:50.992Z,6.40
2019-04-30T02:56:20.452Z,7.27
2019-04-30T02:58:50.623Z,6.83
2019-04-30T03:01:20.214Z,6.03
2019-04-30T03:03:50.130Z,11.33
2019-04-30T03:06:20.495Z,8.23
2019-04-30T03:08:51.163Z,13.93
2019-04-30T03:11:20.658Z,8.83
2019-04-30T03:13:49.756Z,7.03
2019-04-30T03:16:20.698Z,7.53
2019-04-30T03:18:51.204Z,9.67
2019-04-30T03:21:40.348Z,8.77
2019-04-30T03:24:10.468Z,7.10
2019-04-30T03:26:40.013Z,6.23
2019-04-30T03:29:11.233Z,7.10
2019-04-30T03:31:44.103Z,5.67
2019-04-30T03:34:16.520Z,9.40
2019-04-30T03:36:40.350Z,7.63
2019-04-30T03:39:10.923Z,8.20
2019-04-30T03:41:41.270Z,10.53
2019-04-30T03:44:18.556Z,8.23
2019-04-30T03:46:40.460Z,7.10
2019-04-30T03:49:10.592Z,6.60
2019-04-30T03:51:40.309Z,8.83
2019-04-30T03:54:10.079Z,8.17
2019-04-30T03:56:39.814Z,7.40
2019-04-30T03:59:10.646Z,7.27
2019-04-30T04:01:40.496Z,15.10
2019-04-30T04:04:16.758Z,13.70
2019-04-30T04:07:02.806Z,13.73
2019-04-30T04:09:32.968Z,10.67
2019-04-30T04:12:20.455Z,9.97
2019-04-30T04:14:50.903Z,9.27
2019-04-30T04:17:20.392Z,9.73
2019-04-30T04:19:50.385Z,9.57
2019-04-30T04:22:20.861Z,6.77
2019-04-30T04:24:50.577Z,6.07
2019-04-30T04:27:19.774Z,6.63
2019-04-30T04:29:50.989Z,8.03
2019-04-30T04:32:20.695Z,5.00
2019-04-30T04:34:50.533Z,6.27
2019-04-30T04:37:20.307Z,8.00
2019-04-30T04:39:50.050Z,6.03
2019-04-30T04:42:19.828Z,8.47
2019-04-30T04:44:50.287Z,7.57
2019-04-30T04:47:19.909Z,17.20
2019-04-30T04:49:53.169Z,10.27
2019-04-30T04:52:21.615Z,9.20
2019-04-30T04:54:50.695Z,12.13
2019-04-30T04:57:22.573Z,8.50
2019-04-30T04:59:50.247Z,10.00
2019-04-30T05:02:36.482Z,8.93
2019-04-30T05:05:06.795Z,9.07
2019-04-30T05:07:35.279Z,6.47
2019-04-30T05:10:05.284Z,7.80
2019-04-30T05:12:33.772Z,6.93
2019-04-30T05:15:02.248Z,11.07
2019-04-30T05:17:32.065Z,12.97
2019-04-30T05:20:00.782Z,8.60
2019-04-30T05:22:29.519Z,8.30
2019-04-30T05:25:00.215Z,11.60
2019-04-30T05:27:30.356Z,12.67
2019-04-30T05:29:59.598Z,12.83
2019-04-30T05:32:29.335Z,11.63
2019-04-30T05:34:58.715Z,10.17
2019-04-30T05:37:28.439Z,9.67
2019-04-30T05:39:58.484Z,8.77
2019-04-30T05:42:28.544Z,6.17
2019-04-30T05:44:59.176Z,13.60
2019-04-30T05:47:29.139Z,7.40
2019-04-30T05:49:58.490Z,7.93
2019-04-30T05:52:29.064Z,8.67
2019-04-30T05:54:58.492Z,9.87
2019-04-30T05:57:29.414Z,7.93
2019-04-30T05:59:58.599Z,7.47
2019-04-30T06:02:30.718Z,10.50
2019-04-30T06:04:58.774Z,10.80
2019-04-30T06:07:29.812Z,11.47
2019-04-30T06:09:59.713Z,11.03
2019-04-30T06:12:35.790Z,13.00
2019-04-30T06:15:08.985Z,10.10
2019-04-30T06:17:39.307Z,14.40
2019-04-30T06:20:17.730Z,13.17
2019-04-30T06:22:38.666Z,10.90
2019-04-30T06:25:10.545Z,11.87
2019-04-30T06:27:38.703Z,12.87
2019-04-30T06:30:09.686Z,10.67
2019-04-30T06:32:39.496Z,12.17
2019-04-30T06:35:09.231Z,11.17
2019-04-30T06:37:39.120Z,13.57
2019-04-30T06:40:11.691Z,14.43
2019-04-30T06:42:39.658Z,15.27
2019-04-30T06:45:09.293Z,20.67
2019-04-30T06:47:38.915Z,12.13
2019-04-30T06:50:09.691Z,11.47
2019-04-30T06:52:38.998Z,9.87
2019-04-30T06:55:09.440Z,8.90
2019-04-30T06:57:38.371Z,12.37
2019-04-30T07:00:09.822Z,13.67
2019-04-30T07:02:39.310Z,11.13
2019-04-30T07:05:10.215Z,9.27
2019-04-30T07:07:41.752Z,9.60
2019-04-30T07:10:17.182Z,11.40
2019-04-30T07:12:43.886Z,8.90
2019-04-30T07:15:13.768Z,9.93
2019-04-30T07:17:42.292Z,8.57
2019-04-30T07:20:11.231Z,10.73
2019-04-30T07:22:49.004Z,6.87
2019-04-30T07:25:11.740Z,8.60
2019-04-30T07:27:40.313Z,6.67
2019-04-30T07:30:10.011Z,9.00
2019-04-30T07:32:38.873Z,7.53
2019-04-30T07:35:09.574Z,9.73
2019-04-30T07:37:39.157Z,3.97
2019-04-30T07:40:09.121Z,5.00
2019-04-30T07:42:44.122Z,6.30
2019-04-30T07:45:09.694Z,7.23
2019-04-30T07:47:39.540Z,5.30
2019-04-30T07:50:10.717Z,8.23
2019-04-30T07:52:58.066Z,5.87
2019-04-30T07:55:09.774Z,3.57
2019-04-30T07:57:40.436Z,6.87
2019-04-30T08:00:09.844Z,6.03
2019-04-30T08:02:43.518Z,4.53
2019-04-30T08:05:23.981Z,5.07
2019-04-30T08:07:52.579Z,5.03
2019-04-30T08:10:21.171Z,5.97
2019-04-30T08:12:50.809Z,7.13
2019-04-30T08:15:19.967Z,7.97
2019-04-30T08:18:02.292Z,7.20
2019-04-30T08:20:19.633Z,7.40
2019-04-30T08:22:49.364Z,4.77
2019-04-30T08:25:19.859Z,5.27
2019-04-30T08:27:49.283Z,5.37
2019-04-30T08:30:26.258Z,8.00
2019-04-30T08:32:49.986Z,6.20
2019-04-30T08:35:19.709Z,6.13
2019-04-30T08:37:49.729Z,5.83
2019-04-30T08:40:19.082Z,6.43
2019-04-30T08:42:49.590Z,6.40
2019-04-30T08:45:19.672Z,5.67
2019-04-30T08:47:49.290Z,8.27
2019-04-30T08:50:19.995Z,7.27
2019-04-30T08:52:49.841Z,6.00
2019-04-30T08:55:19.704Z,5.13
2019-04-30T08:57:50.022Z,5.97
2019-04-30T09:00:19.602Z,5.67
2019-04-30T09:02:49.200Z,7.60
2019-04-30T09:05:22.492Z,5.27
2019-04-30T09:07:51.060Z,4.53
2019-04-30T09:10:19.614Z,5.13
2019-04-30T09:12:51.680Z,6.53
2019-04-30T09:15:21.111Z,4.13
2019-04-30T09:18:00.834Z,5.80
2019-04-30T09:20:19.844Z,8.20
2019-04-30T09:22:49.646Z,5.00
2019-04-30T09:25:20.188Z,3.87
2019-04-30T09:27:56.055Z,7.10
2019-04-30T09:33:19.546Z,5.70
2019-04-30T09:35:49.511Z,6.63
2019-04-30T09:38:19.528Z,5.07
2019-04-30T09:40:50.715Z,7.90
2019-04-30T09:43:19.432Z,3.80
2019-04-30T09:45:49.745Z,4.90
2019-04-30T09:48:18.970Z,7.43
2019-04-30T09:50:49.743Z,6.07
2019-04-30T09:53:19.632Z,5.87
2019-04-30T09:55:49.628Z,6.77
2019-04-30T09:58:21.051Z,5.33
2019-04-30T10:00:50.372Z,3.97
2019-04-30T10:03:20.177Z,4.60
2019-04-30T10:05:49.438Z,3.87
2019-04-30T10:08:20.774Z,5.77
2019-04-30T10:10:53.519Z,7.37
2019-04-30T10:13:22.034Z,4.20
2019-04-30T10:15:52.148Z,8.50
2019-04-30T10:18:20.659Z,6.73
2019-04-30T10:20:49.209Z,7.00
2019-04-30T10:23:19.329Z,6.40
2019-04-30T10:25:48.029Z,7.17
2019-04-30T10:28:16.695Z,4.13
2019-04-30T10:30:45.177Z,6.77
2019-04-30T10:33:13.766Z,3.97
2019-04-30T10:35:42.414Z,3.60
2019-04-30T10:38:10.922Z,6.93
2019-04-30T10:40:39.564Z,5.10
2019-04-30T10:43:08.970Z,6.47
2019-04-30T10:45:38.826Z,6.77
2019-04-30T10:48:07.574Z,5.30
2019-04-30T10:50:36.083Z,4.13
2019-04-30T10:53:04.811Z,5.53
2019-04-30T10:55:33.316Z,4.73
2019-04-30T10:58:01.824Z,4.50
2019-04-30T11:00:38.944Z,7.00
2019-04-30T11:03:19.086Z,4.93
2019-04-30T11:05:41.054Z,4.13
2019-04-30T11:08:09.168Z,3.40
2019-04-30T11:10:39.782Z,5.07
2019-04-30T11:13:08.184Z,9.00
2019-04-30T11:15:36.970Z,5.73
2019-04-30T11:18:05.713Z,5.57
2019-04-30T11:20:34.532Z,3.23
2019-04-30T11:23:13.879Z,3.73
2019-04-30T11:25:34.411Z,6.67
2019-04-30T11:28:04.101Z,4.30
2019-04-30T11:30:33.372Z,3.43
2019-04-30T11:33:02.106Z,6.03
2019-04-30T11:35:30.734Z,4.53
2019-04-30T11:37:59.270Z,3.40
2019-04-30T11:40:37.087Z,6.20
2019-04-30T11:43:01.003Z,7.37
2019-04-30T11:45:53.269Z,5.20
2019-04-30T11:48:21.838Z,6.57
2019-04-30T11:50:50.310Z,11.07
2019-04-30T11:53:25.426Z,5.20
2019-04-30T11:55:49.307Z,4.17
2019-04-30T11:58:21.806Z,5.83
2019-04-30T12:00:49.515Z,3.50
2019-04-30T12:03:19.210Z,6.27
2019-04-30T12:05:49.009Z,6.87
2019-04-30T12:08:22.063Z,3.63
2019-04-30T12:11:01.519Z,2.90
2019-04-30T12:16:37.111Z,3.57
2019-04-30T12:19:09.166Z,3.30
2019-04-30T12:21:37.723Z,3.93
2019-04-30T12:24:30.270Z,4.57
2019-04-30T12:26:58.451Z,6.83
2019-04-30T12:29:29.027Z,5.07
2019-04-30T12:31:57.168Z,3.87
2019-04-30T12:34:25.685Z,4.43
2019-04-30T12:37:13.547Z,4.13
2019-04-30T12:39:42.079Z,3.67
2019-04-30T12:42:11.041Z,3.80
2019-04-30T12:44:47.193Z,2.87
2019-04-30T12:47:15.691Z,3.37
2019-04-30T12:49:50.003Z,5.30
2019-04-30T12:55:22.503Z,4.80
2019-04-30T12:57:58.903Z,3.07
2019-04-30T13:00:22.841Z,3.73
2019-04-30T13:02:51.453Z,3.20
2019-04-30T13:05:20.098Z,2.73
2019-04-30T13:07:50.036Z,2.90
2019-04-30T13:10:19.873Z,4.60
2019-04-30T13:12:49.235Z,3.30
2019-04-30T13:15:18.391Z,3.40
2019-04-30T13:17:49.952Z,3.77
2019-04-30T13:20:20.875Z,6.30
2019-04-30T13:22:48.848Z,5.47
2019-04-30T13:25:29.540Z,4.27
2019-04-30T13:27:54.764Z,5.87
2019-04-30T13:30:25.189Z,5.20
2019-04-30T13:32:55.480Z,6.10
2019-04-30T13:35:23.987Z,6.67
2019-04-30T13:37:59.795Z,9.90
2019-04-30T13:40:35.667Z,7.90
2019-04-30T13:43:06.205Z,5.40
2019-04-30T13:45:34.752Z,7.37
2019-04-30T13:48:03.445Z,5.23
2019-04-30T13:50:31.955Z,7.40
2019-04-30T13:53:00.567Z,8.13
2019-04-30T13:55:33.236Z,6.57
2019-04-30T13:57:59.254Z,6.13
2019-04-30T14:00:29.810Z,6.33
2019-04-30T14:03:16.044Z,7.33
2019-04-30T14:05:44.756Z,6.90
2019-04-30T14:08:20.834Z,8.00
2019-04-30T14:10:49.435Z,7.10
2019-04-30T14:13:18.074Z,8.23
2019-04-30T14:15:47.814Z,8.63
2019-04-30T14:18:27.906Z,7.07
2019-04-30T14:20:46.908Z,8.40
2019-04-30T14:23:18.593Z,5.40
2019-04-30T14:25:56.733Z,9.73
2019-04-30T14:28:25.093Z,6.37
2019-04-30T14:30:53.782Z,8.60
2019-04-30T14:33:26.326Z,7.03
2019-04-30T14:35:52.617Z,9.13
2019-04-30T14:38:21.205Z,7.53
2019-04-30T14:40:50.784Z,7.97
2019-04-30T14:43:22.194Z,10.40
2019-04-30T14:45:56.266Z,7.33
2019-04-30T14:48:27.301Z,8.20
2019-04-30T14:50:56.213Z,7.47
2019-04-30T14:53:30.526Z,9.57
2019-04-30T14:56:17.017Z,10.20
2019-04-30T14:58:47.214Z,8.47
2019-04-30T15:01:33.604Z,8.67
2019-04-30T15:04:02.376Z,9.60
2019-04-30T15:06:30.901Z,10.23
2019-04-30T15:08:59.497Z,8.30
2019-04-30T15:11:28.842Z,13.13
2019-04-30T15:13:59.121Z,8.27
2019-04-30T15:16:27.908Z,11.57
2019-04-30T15:18:56.389Z,9.43
2019-04-30T15:21:24.946Z,8.83
2019-04-30T15:23:58.714Z,10.90
2019-04-30T15:26:25.561Z,10.30
2019-04-30T15:28:54.058Z,10.60
2019-04-30T15:31:22.665Z,8.27
2019-04-30T15:34:02.579Z,9.70
2019-04-30T15:36:25.778Z,9.10
2019-04-30T15:38:55.903Z,8.20
2019-04-30T15:41:24.670Z,10.27
2019-04-30T15:43:53.182Z,8.80
2019-04-30T15:46:21.738Z,9.97
2019-04-30T15:48:50.288Z,9.70
2019-04-30T15:51:18.862Z,9.40
2019-04-30T15:53:48.903Z,9.70
2019-04-30T15:56:19.182Z,10.43
2019-04-30T15:59:05.504Z,10.17
2019-04-30T16:01:34.076Z,9.97
2019-04-30T16:04:02.827Z,9.50
2019-04-30T16:06:31.323Z,11.10
2019-04-30T16:09:01.510Z,11.83
2019-04-30T16:11:31.654Z,10.80
2019-04-30T16:14:11.033Z,8.80
2019-04-30T16:16:41.191Z,11.53
2019-04-30T16:19:09.737Z,14.73
2019-04-30T16:21:38.241Z,11.63
2019-04-30T16:24:08.632Z,10.27
2019-04-30T16:26:48.616Z,10.87
2019-04-30T16:29:09.818Z,7.87
2019-04-30T16:31:39.158Z,9.27
2019-04-30T16:34:07.943Z,8.17
2019-04-30T16:36:36.441Z,10.30
2019-04-30T16:39:08.732Z,10.00
2019-04-30T16:41:40.535Z,9.30
2019-04-30T16:44:09.197Z,7.17
2019-04-30T16:46:39.449Z,9.43
2019-04-30T16:49:09.994Z,9.63
2019-04-30T16:51:38.681Z,11.00
2019-04-30T16:54:08.659Z,11.70
2019-04-30T16:56:38.708Z,6.27
2019-04-30T16:59:09.031Z,9.57
2019-04-30T17:01:37.716Z,6.80
2019-04-30T17:04:13.862Z,8.70
2019-04-30T17:06:43.963Z,8.70
2019-04-30T17:09:14.136Z,9.67
2019-04-30T17:11:48.553Z,8.03
2019-04-30T17:14:17.321Z,9.40
2019-04-30T17:16:45.793Z,9.53
2019-04-30T17:19:14.320Z,7.43
2019-04-30T17:21:42.805Z,10.53
2019-04-30T17:24:13.941Z,7.03
2019-04-30T17:26:41.515Z,9.63
2019-04-30T17:29:09.969Z,7.10
2019-04-30T17:31:38.468Z,10.97
2019-04-30T17:34:07.063Z,10.60
2019-04-30T17:36:35.525Z,8.23
2019-04-30T17:39:05.538Z,7.90
2019-04-30T17:41:34.043Z,8.20
2019-04-30T17:44:02.522Z,8.10
2019-04-30T17:46:31.005Z,10.07
2019-04-30T17:48:59.514Z,7.83
2019-04-30T17:51:27.984Z,7.03
2019-04-30T17:54:12.679Z,9.63
2019-04-30T17:56:42.286Z,8.80
2019-04-30T17:59:11.011Z,8.10
2019-04-30T18:01:41.307Z,9.60
2019-04-30T18:04:09.882Z,7.80
2019-04-30T18:06:38.602Z,7.83
2019-04-30T18:09:10.723Z,6.50
2019-04-30T18:11:39.604Z,5.53
2019-04-30T18:14:08.831Z,13.43
2019-04-30T18:16:38.650Z,4.87
2019-04-30T18:19:12.087Z,4.93
2019-04-30T18:21:51.149Z,6.33
2019-04-30T18:24:33.352Z,5.10
2019-04-30T18:27:03.571Z,4.83
2019-04-30T18:29:32.053Z,5.87
2019-04-30T18:32:00.686Z,5.37
2019-04-30T18:34:29.285Z,5.10
2019-04-30T18:36:59.338Z,7.20
2019-04-30T18:39:28.924Z,8.53
2019-04-30T18:41:57.527Z,6.83
2019-04-30T18:44:25.999Z,5.67
2019-04-30T18:46:54.498Z,5.30
2019-04-30T18:49:22.972Z,7.33
2019-04-30T18:51:51.492Z,6.60
2019-04-30T18:54:20.933Z,5.60
2019-04-30T18:56:49.595Z,5.43
2019-04-30T18:59:19.642Z,7.03
2019-04-30T19:01:48.304Z,5.57
2019-04-30T19:04:18.585Z,5.93
2019-04-30T19:06:47.077Z,6.10
2019-04-30T19:09:22.924Z,6.23
2019-04-30T19:11:55.743Z,5.73
2019-04-30T19:14:26.006Z,5.10
2019-04-30T19:17:12.174Z,6.50
2019-04-30T19:19:53.974Z,7.47
2019-04-30T19:22:22.571Z,7.37
2019-04-30T19:24:56.185Z,7.67
2019-04-30T19:27:21.329Z,6.33
2019-04-30T19:29:51.731Z,6.73
2019-04-30T19:32:20.244Z,6.60
2019-04-30T19:34:49.035Z,5.47
2019-04-30T19:37:19.585Z,6.50
2019-04-30T19:39:48.726Z,6.30
2019-04-30T19:42:18.777Z,4.07
2019-04-30T19:44:58.898Z,4.30
2019-04-30T19:47:19.133Z,5.43
2019-04-30T19:49:48.855Z,6.47
2019-04-30T19:52:19.191Z,6.43
2019-04-30T19:54:48.791Z,5.80
2019-04-30T19:57:19.025Z,6.30
2019-04-30T19:59:49.181Z,12.20
2019-04-30T20:02:19.092Z,4.47
2019-04-30T20:04:47.991Z,5.27
2019-04-30T20:07:16.569Z,6.43
2019-04-30T20:09:57.253Z,6.60
2019-04-30T20:12:15.264Z,5.57
2019-04-30T20:14:43.767Z,5.43
2019-04-30T20:17:13.211Z,5.93
2019-04-30T20:19:41.693Z,7.27
2019-04-30T20:22:10.427Z,7.20
2019-04-30T20:24:39.408Z,5.90
2019-04-30T20:27:10.196Z,6.13
2019-04-30T20:29:38.147Z,6.20
2019-04-30T20:32:08.558Z,5.10
2019-04-30T20:34:39.105Z,6.73
2019-04-30T20:37:08.614Z,4.93
2019-04-30T20:39:44.734Z,7.17
2019-04-30T20:42:13.243Z,7.43
2019-04-30T20:44:41.695Z,5.13
2019-04-30T20:47:10.176Z,5.90
2019-04-30T20:49:39.128Z,7.20
2019-04-30T20:52:07.603Z,6.10
2019-04-30T20:54:36.142Z,5.70
2019-04-30T20:57:04.634Z,6.37
2019-04-30T20:59:33.095Z,6.93
2019-04-30T21:02:01.638Z,6.00
2019-04-30T21:04:30.141Z,7.83
2019-04-30T21:06:59.464Z,7.27
2019-04-30T21:09:28.071Z,5.53
2019-04-30T21:11:58.711Z,6.83
2019-04-30T21:14:26.805Z,4.63
2019-04-30T21:16:55.296Z,8.70
2019-04-30T21:19:23.800Z,6.50
2019-04-30T21:21:52.281Z,6.47
2019-04-30T21:24:20.825Z,8.20
2019-04-30T21:26:49.365Z,8.27
2019-04-30T21:29:18.877Z,7.50
2019-04-30T21:32:00.597Z,6.63
2019-04-30T21:34:30.813Z,7.00
2019-04-30T21:36:59.678Z,7.63
2019-04-30T21:39:28.336Z,6.63
2019-04-30T21:41:56.807Z,5.93
2019-04-30T21:44:25.342Z,7.00
2019-04-30T21:46:53.844Z,5.60
2019-04-30T21:49:22.313Z,6.77
2019-04-30T21:51:50.865Z,6.17
2019-04-30T21:54:19.337Z,7.50
2019-04-30T21:56:47.817Z,5.37
2019-04-30T21:59:24.262Z,6.27
2019-04-30T22:01:46.561Z,7.97
2019-04-30T22:04:15.528Z,6.73
2019-04-30T22:06:44.089Z,8.10
2019-04-30T22:09:13.627Z,7.33
2019-04-30T22:11:42.302Z,5.53
2019-04-30T22:14:10.930Z,6.67
2019-04-30T22:16:39.885Z,6.73
2019-04-30T22:19:08.392Z,6.30
2019-04-30T22:21:36.904Z,7.07
2019-04-30T22:24:05.523Z,5.70
2019-04-30T22:26:34.026Z,6.63
2019-04-30T22:29:02.510Z,5.43
2019-04-30T22:31:30.986Z,7.43
2019-04-30T22:33:59.457Z,5.90
2019-04-30T22:36:41.346Z,8.60
2019-04-30T22:39:12.079Z,5.10
2019-04-30T22:41:40.589Z,6.50
2019-04-30T22:44:09.087Z,5.30
2019-04-30T22:46:39.391Z,7.17
2019-04-30T22:49:07.912Z,6.40
2019-04-30T22:51:36.404Z,5.20
2019-04-30T22:54:04.935Z,5.80
2019-04-30T22:56:33.419Z,7.13
2019-04-30T22:59:01.896Z,6.23
2019-04-30T23:01:44.059Z,6.63
2019-04-30T23:04:30.488Z,6.57
2019-04-30T23:06:59.049Z,6.93
2019-04-30T23:09:27.538Z,9.10
2019-04-30T23:11:56.097Z,6.70
2019-04-30T23:14:24.658Z,6.20
2019-04-30T23:16:53.191Z,5.23
2019-04-30T23:19:21.660Z,5.70
2019-04-30T23:21:50.144Z,6.53
2019-04-30T23:24:18.631Z,5.77
2019-04-30T23:26:47.105Z,7.63
2019-04-30T23:29:15.587Z,6.57
2019-04-30T23:31:44.056Z,5.13
2019-04-30T23:34:17.986Z,4.40
2019-04-30T23:36:42.725Z,5.23
2019-04-30T23:39:11.280Z,5.00
2019-04-30T23:41:39.751Z,6.47
2019-04-30T23:44:08.255Z,5.67
2019-04-30T23:46:36.711Z,5.20
2019-04-30T23:49:05.276Z,3.70
2019-04-30T23:51:33.731Z,4.80
2019-04-30T23:54:02.206Z,5.70
2019-04-30T23:56:30.697Z,5.43
2019-04-30T23:58:59.158Z,5.73
